Time;durP1;ratioP1;P1;durP2;ratioP2;P2;SDS_P1;SDS_P2;PMS_P1;PMS_P2;Temp;Humidity;BMP_temperature;BMP_pressure;BME280_temperature;BME280_humidity;BME280_pressure;Samples;Min_cycle;Max_cycle;Signal;HPM_P1;HPM_P2
2024/01/20 00:00:09;;;;;;;16.87;3.60;;;-0.80;99.90;;;;;;5021803;23;20162;-91
2024/01/20 00:02:11;;;;;;;6.17;2.37;;;-0.90;99.90;;;;;;5022013;23;20181;-90
2024/01/20 00:04:12;;;;;;;6.23;2.37;;;-0.90;99.90;;;;;;5021811;23;20179;-89
2024/01/20 00:06:13;;;;;;;10.13;1.90;;;-0.80;99.90;;;;;;5022139;23;20203;-90
2024/01/20 00:08:14;;;;;;;9.17;3.57;;;-0.80;99.90;;;;;;5022396;23;20163;-89
2024/01/20 00:10:15;;;;;;;12.57;2.50;;;-0.90;99.90;;;;;;5022115;23;20673;-90
2024/01/20 00:12:16;;;;;;;5.60;2.77;;;-0.90;99.90;;;;;;5021869;23;20191;-89
2024/01/20 00:14:16;;;;;;;3.93;2.27;;;-0.80;99.90;;;;;;5022158;23;20147;-89
2024/01/20 00:16:17;;;;;;;10.20;2.87;;;-0.80;99.90;;;;;;5021923;23;20290;-91
2024/01/20 00:18:18;;;;;;;6.73;2.27;;;-0.90;99.90;;;;;;5021962;23;20207;-89
2024/01/20 00:20:19;;;;;;;7.57;4.10;;;-0.90;99.90;;;;;;5045475;23;20613;-90
2024/01/20 00:22:20;;;;;;;15.20;4.23;;;-0.90;99.90;;;;;;5022009;23;20171;-90
2024/01/20 00:24:21;;;;;;;6.23;3.13;;;-0.90;99.90;;;;;;5021714;23;20195;-90
2024/01/20 00:26:22;;;;;;;8.33;2.97;;;-0.90;99.90;;;;;;5021827;23;20626;-90
2024/01/20 00:28:22;;;;;;;4.07;2.70;;;-0.90;99.90;;;;;;5021926;23;20186;-91
2024/01/20 00:30:23;;;;;;;11.90;4.07;;;-0.90;99.90;;;;;;5021893;23;20190;-89
2024/01/20 00:32:24;;;;;;;5.53;3.17;;;-0.80;99.90;;;;;;5045424;23;20190;-91
2024/01/20 00:34:26;;;;;;;6.87;3.07;;;-0.90;99.90;;;;;;5045850;23;20154;-91
2024/01/20 00:36:27;;;;;;;4.97;2.33;;;-0.80;99.90;;;;;;5022033;23;20231;-91
2024/01/20 00:38:28;;;;;;;4.57;3.23;;;-0.80;99.90;;;;;;5045708;23;20154;-90
2024/01/20 00:40:29;;;;;;;9.63;4.33;;;-0.80;99.90;;;;;;5021699;23;20159;-90
2024/01/20 00:42:30;;;;;;;16.33;4.10;;;-0.90;99.90;;;;;;5021788;23;20535;-90
2024/01/20 00:44:31;;;;;;;9.93;3.77;;;-0.80;99.90;;;;;;5021869;23;20588;-91
2024/01/20 00:46:32;;;;;;;10.07;2.77;;;-0.70;99.90;;;;;;5021794;23;20235;-89
2024/01/20 00:48:33;;;;;;;9.67;3.40;;;-0.80;99.90;;;;;;5022031;23;20159;-91
2024/01/20 00:50:34;;;;;;;11.13;4.70;;;-0.70;99.90;;;;;;5021920;23;20259;-90
2024/01/20 00:52:35;;;;;;;11.80;3.30;;;-0.70;99.90;;;;;;5045577;23;20166;-90
2024/01/20 00:54:36;;;;;;;4.90;1.73;;;-0.70;99.90;;;;;;5021852;23;20159;-88
2024/01/20 00:56:37;;;;;;;11.90;2.90;;;-0.70;99.90;;;;;;5021657;23;20175;-90
2024/01/20 00:58:37;;;;;;;4.73;2.97;;;-0.70;99.90;;;;;;5045621;23;20643;-90
2024/01/20 01:00:38;;;;;;;4.77;3.00;;;-0.80;99.90;;;;;;5045562;23;20590;-90
2024/01/20 01:02:40;;;;;;;9.83;4.03;;;-0.90;99.90;;;;;;5021925;23;20218;-90
2024/01/20 01:04:41;;;;;;;9.23;3.17;;;-0.80;99.90;;;;;;5021762;23;20150;-91
2024/01/20 01:06:42;;;;;;;7.73;3.33;;;-0.80;99.90;;;;;;5021629;23;20175;-90
2024/01/20 01:08:43;;;;;;;7.97;2.43;;;-0.90;99.90;;;;;;5021320;23;20155;-91
2024/01/20 01:10:43;;;;;;;8.17;2.90;;;-1.00;99.90;;;;;;5021404;23;20159;-90
2024/01/20 01:12:44;;;;;;;2.60;1.90;;;-1.00;99.90;;;;;;5021354;23;20151;-90
2024/01/20 01:14:45;;;;;;;6.43;3.57;;;-1.00;99.90;;;;;;5021436;23;20155;-89
2024/01/20 01:16:47;;;;;;;3.30;1.70;;;-1.00;99.90;;;;;;5045248;23;20181;-90
2024/01/20 01:18:48;;;;;;;13.87;2.77;;;-1.00;99.90;;;;;;5021486;23;20215;-92
2024/01/20 01:20:49;;;;;;;9.53;3.70;;;-0.90;99.90;;;;;;5045315;23;20158;-89
2024/01/20 01:22:51;;;;;;;7.07;2.73;;;-0.90;99.90;;;;;;5045096;23;20150;-91
2024/01/20 01:24:51;;;;;;;8.07;3.30;;;-1.00;99.90;;;;;;5045521;23;20162;-90
2024/01/20 01:26:52;;;;;;;9.83;2.23;;;-1.00;99.90;;;;;;5021206;23;20181;-89
2024/01/20 01:28:53;;;;;;;11.40;4.33;;;-1.00;99.90;;;;;;5045404;23;20158;-92
2024/01/20 01:30:54;;;;;;;6.80;2.37;;;-0.90;99.90;;;;;;5021277;23;20258;-91
2024/01/20 01:32:55;;;;;;;6.20;3.73;;;-0.80;99.90;;;;;;4997545;23;20158;-89
2024/01/20 01:34:56;;;;;;;6.70;2.90;;;-0.80;99.90;;;;;;4997559;23;20151;-91
2024/01/20 01:36:56;;;;;;;5.33;2.07;;;-0.80;99.90;;;;;;5021315;23;20175;-91
2024/01/20 01:38:57;;;;;;;6.07;2.63;;;-0.90;99.90;;;;;;4997628;23;20148;-91
2024/01/20 01:40:58;;;;;;;3.67;2.10;;;-0.80;99.90;;;;;;4997578;23;20223;-91
2024/01/20 01:42:59;;;;;;;11.80;5.30;;;-0.90;99.90;;;;;;5021565;23;20483;-91
2024/01/20 01:45:00;;;;;;;12.47;1.80;;;-0.90;99.90;;;;;;4997717;23;20158;-89
2024/01/20 01:47:01;;;;;;;3.60;2.30;;;-1.00;99.90;;;;;;5021342;23;20266;-89
2024/01/20 01:49:03;;;;;;;5.43;2.10;;;-1.00;99.90;;;;;;4997747;23;20192;-91
2024/01/20 01:51:05;;;;;;;7.00;3.60;;;-1.00;99.90;;;;;;4997407;23;20183;-90
2024/01/20 01:53:05;;;;;;;2.60;1.73;;;-1.10;99.90;;;;;;4997546;23;20203;-91
2024/01/20 01:55:07;;;;;;;4.90;2.87;;;-1.10;99.90;;;;;;4997534;23;20163;-91
2024/01/20 01:57:10;;;;;;;6.90;2.70;;;-1.10;99.90;;;;;;5021209;23;20614;-90
2024/01/20 01:59:10;;;;;;;6.90;2.77;;;-1.10;99.90;;;;;;5021347;23;20527;-91
2024/01/20 02:01:11;;;;;;;3.67;2.43;;;-1.10;99.90;;;;;;4997511;23;20188;-89
2024/01/20 02:03:12;;;;;;;5.73;3.80;;;-1.10;99.90;;;;;;4997424;23;20155;-91
2024/01/20 02:05:13;;;;;;;3.80;2.20;;;-1.00;99.90;;;;;;5021169;23;20507;-90
2024/01/20 02:07:16;;;;;;;7.40;3.27;;;-1.00;99.90;;;;;;4997450;23;20618;-91
2024/01/20 02:09:17;;;;;;;17.00;3.43;;;-1.00;99.90;;;;;;5021091;23;20802;-90
2024/01/20 02:11:19;;;;;;;6.20;2.73;;;-1.10;99.90;;;;;;4997544;23;20188;-92
2024/01/20 02:13:20;;;;;;;5.60;2.00;;;-1.00;99.90;;;;;;4997304;23;20355;-89
2024/01/20 02:15:22;;;;;;;9.40;3.33;;;-1.10;99.90;;;;;;5021494;23;20546;-91
2024/01/20 02:17:22;;;;;;;10.37;3.90;;;-1.10;99.90;;;;;;5021157;23;20151;-91
2024/01/20 02:19:23;;;;;;;7.13;3.37;;;-1.10;99.90;;;;;;5020652;23;20676;-89
2024/01/20 02:21:24;;;;;;;12.53;3.10;;;-1.00;99.90;;;;;;5020971;23;20483;-91
2024/01/20 02:23:25;;;;;;;6.93;3.33;;;-0.90;99.90;;;;;;4997332;23;20162;-90
2024/01/20 02:25:26;;;;;;;9.47;2.97;;;-0.90;99.90;;;;;;4997054;23;20162;-90
2024/01/20 02:27:27;;;;;;;7.37;3.87;;;-1.00;99.90;;;;;;4997182;23;20492;-88
2024/01/20 02:29:27;;;;;;;11.53;3.57;;;-1.00;99.90;;;;;;4997427;23;20152;-89
2024/01/20 02:31:28;;;;;;;6.30;2.33;;;-1.00;99.90;;;;;;5014299;23;20217;-89
2024/01/20 02:33:29;;;;;;;3.43;2.10;;;-1.00;99.90;;;;;;5021382;23;20147;-90
2024/01/20 02:35:30;;;;;;;10.50;1.93;;;-0.90;99.90;;;;;;5021621;23;20170;-90
2024/01/20 02:37:31;;;;;;;7.07;3.23;;;-1.00;99.90;;;;;;5021325;23;20644;-92
2024/01/20 02:39:32;;;;;;;4.47;1.57;;;-1.00;99.90;;;;;;5021383;23;20315;-91
2024/01/20 02:41:32;;;;;;;10.43;3.73;;;-1.00;99.90;;;;;;4997086;23;20215;-90
2024/01/20 02:43:33;;;;;;;15.37;2.57;;;-1.10;99.90;;;;;;4997423;23;20163;-90
2024/01/20 02:45:34;;;;;;;7.53;2.60;;;-1.00;99.90;;;;;;4996771;23;20178;-89
2024/01/20 02:47:35;;;;;;;4.93;1.77;;;-1.00;99.90;;;;;;4997412;23;20160;-89
2024/01/20 02:49:36;;;;;;;7.73;3.33;;;-1.00;99.90;;;;;;4997348;23;20156;-90
2024/01/20 02:51:36;;;;;;;8.03;4.07;;;-1.00;99.90;;;;;;5020813;23;20198;-90
2024/01/20 02:53:37;;;;;;;7.07;3.03;;;-1.00;99.90;;;;;;4997091;23;20163;-91
2024/01/20 02:55:38;;;;;;;4.30;2.60;;;-1.10;99.90;;;;;;4997052;23;20219;-90
2024/01/20 02:57:39;;;;;;;9.83;4.40;;;-1.10;99.90;;;;;;4997561;23;20234;-90
2024/01/20 02:59:40;;;;;;;4.10;2.57;;;-0.90;99.90;;;;;;4997152;23;20156;-91
2024/01/20 03:01:41;;;;;;;4.13;2.57;;;-1.00;99.90;;;;;;4997374;23;20152;-91
2024/01/20 03:03:42;;;;;;;8.40;3.60;;;-1.00;99.90;;;;;;5020905;23;20158;-92
2024/01/20 03:05:43;;;;;;;3.97;2.30;;;-1.00;99.90;;;;;;4997306;23;20601;-91
2024/01/20 03:07:44;;;;;;;6.23;1.83;;;-1.10;99.90;;;;;;4997137;23;20183;-91
2024/01/20 03:09:45;;;;;;;6.97;2.97;;;-1.10;99.90;;;;;;4997378;23;20156;-89
2024/01/20 03:11:46;;;;;;;5.13;2.53;;;-1.00;99.90;;;;;;4996980;23;20195;-91
2024/01/20 03:13:47;;;;;;;6.80;3.37;;;-1.00;99.90;;;;;;5020927;23;20155;-91
2024/01/20 03:15:47;;;;;;;6.47;3.07;;;-1.00;99.90;;;;;;5020779;23;20567;-89
2024/01/20 03:17:48;;;;;;;5.70;2.77;;;-1.10;99.90;;;;;;4997223;23;20595;-90
2024/01/20 03:19:49;;;;;;;5.07;2.63;;;-1.10;99.90;;;;;;4997298;23;20642;-92
2024/01/20 03:21:50;;;;;;;7.97;3.53;;;-1.10;99.90;;;;;;4997232;23;20195;-91
2024/01/20 03:23:53;;;;;;;6.30;1.13;;;-1.10;99.90;;;;;;5020766;23;20155;-91
2024/01/20 03:25:54;;;;;;;6.87;3.23;;;-1.20;99.90;;;;;;4997204;23;20178;-91
2024/01/20 03:27:55;;;;;;;5.83;3.10;;;-1.20;99.90;;;;;;4997353;23;20156;-91
2024/01/20 03:29:56;;;;;;;8.80;2.80;;;-1.20;99.90;;;;;;4997433;23;20156;-91
2024/01/20 03:31:57;;;;;;;3.83;2.83;;;-1.10;99.90;;;;;;4998325;23;20232;-90
2024/01/20 03:33:58;;;;;;;4.97;3.17;;;-1.10;99.90;;;;;;4998713;23;20252;-90
2024/01/20 03:35:59;;;;;;;4.00;2.67;;;-1.10;99.90;;;;;;4998624;23;20187;-90
2024/01/20 03:38:00;;;;;;;12.43;2.80;;;-1.00;99.90;;;;;;4998609;23;20160;-91
2024/01/20 03:40:01;;;;;;;4.57;2.73;;;-1.10;99.90;;;;;;5022422;23;20159;-90
2024/01/20 03:42:02;;;;;;;2.10;1.30;;;-1.10;99.90;;;;;;5022412;23;20210;-91
2024/01/20 03:44:03;;;;;;;2.97;1.90;;;-1.00;99.90;;;;;;4998599;23;20167;-90
2024/01/20 03:46:04;;;;;;;8.40;2.83;;;-1.00;99.90;;;;;;4998450;23;20251;-89
2024/01/20 03:48:05;;;;;;;5.37;2.07;;;-1.10;99.90;;;;;;4998863;23;20232;-90
2024/01/20 03:50:06;;;;;;;8.77;2.93;;;-1.00;99.90;;;;;;4998646;23;20153;-90
2024/01/20 03:52:07;;;;;;;7.13;4.07;;;-1.10;99.90;;;;;;5022534;23;20267;-90
2024/01/20 03:54:08;;;;;;;4.77;2.77;;;-1.00;99.90;;;;;;4998840;23;20155;-91
2024/01/20 03:56:09;;;;;;;4.87;2.53;;;-1.00;99.90;;;;;;5022264;23;20258;-90
2024/01/20 03:58:11;;;;;;;4.90;1.47;;;-1.00;99.90;;;;;;4998412;23;20591;-90
2024/01/20 04:00:12;;;;;;;2.67;2.27;;;-1.10;99.90;;;;;;4998293;23;20155;-90
2024/01/20 04:02:13;;;;;;;7.77;2.97;;;-1.20;99.90;;;;;;4998447;23;20203;-89
2024/01/20 04:04:13;;;;;;;2.33;0.97;;;-1.20;99.90;;;;;;4998516;23;20156;-89
2024/01/20 04:06:15;;;;;;;4.73;2.70;;;-1.10;99.90;;;;;;4998568;23;20179;-91
2024/01/20 04:08:16;;;;;;;5.63;2.80;;;-1.10;99.90;;;;;;4998398;23;20619;-89
2024/01/20 04:10:17;;;;;;;2.53;2.33;;;-1.20;99.90;;;;;;4998255;23;20247;-90
2024/01/20 04:12:18;;;;;;;6.13;2.60;;;-1.30;99.90;;;;;;4998004;23;20191;-90
2024/01/20 04:14:19;;;;;;;5.97;3.07;;;-1.20;99.90;;;;;;4998086;23;20148;-91
2024/01/20 04:16:20;;;;;;;6.80;4.30;;;-1.30;99.90;;;;;;5021803;23;20179;-90
2024/01/20 04:18:20;;;;;;;7.50;3.53;;;-1.20;99.90;;;;;;5022245;23;20162;-91
2024/01/20 04:20:21;;;;;;;9.07;4.10;;;-1.20;99.90;;;;;;4997920;23;20191;-90
2024/01/20 04:22:22;;;;;;;4.23;1.80;;;-1.10;99.90;;;;;;4997943;23;20166;-90
2024/01/20 04:24:23;;;;;;;4.63;3.67;;;-1.10;99.90;;;;;;4998213;23;20697;-89
2024/01/20 04:26:24;;;;;;;7.27;3.43;;;-1.20;99.90;;;;;;4998031;23;20259;-91
2024/01/20 04:28:25;;;;;;;12.50;5.10;;;-1.20;99.90;;;;;;5022004;23;20166;-90
2024/01/20 04:30:26;;;;;;;7.20;2.90;;;-1.20;99.90;;;;;;4998626;23;20168;-89
2024/01/20 04:32:26;;;;;;;4.67;2.53;;;-1.30;99.90;;;;;;5021977;23;20199;-88
2024/01/20 04:34:27;;;;;;;7.10;3.40;;;-1.20;99.90;;;;;;4998000;23;20175;-91
2024/01/20 04:36:28;;;;;;;4.20;1.63;;;-1.30;99.90;;;;;;4998055;23;20173;-90
2024/01/20 04:38:29;;;;;;;10.47;2.50;;;-1.30;99.90;;;;;;5022033;23;20319;-91
2024/01/20 04:40:29;;;;;;;9.00;4.00;;;-1.20;99.90;;;;;;4998165;23;20238;-89
2024/01/20 04:42:30;;;;;;;6.27;3.60;;;-1.30;99.90;;;;;;4997439;23;20223;-90
2024/01/20 04:44:31;;;;;;;15.37;5.27;;;-1.30;99.90;;;;;;4998090;23;20240;-90
2024/01/20 04:46:32;;;;;;;3.40;1.73;;;-1.30;99.90;;;;;;4997752;23;20207;-90
2024/01/20 04:48:33;;;;;;;6.00;2.70;;;-1.30;99.90;;;;;;4998037;23;20152;-91
2024/01/20 04:50:34;;;;;;;8.23;2.80;;;-1.40;99.90;;;;;;5021755;23;20155;-90
2024/01/20 04:52:35;;;;;;;3.50;2.47;;;-1.40;99.90;;;;;;5021689;23;20201;-92
2024/01/20 04:54:36;;;;;;;8.07;3.50;;;-1.40;99.90;;;;;;4998022;23;20178;-90
2024/01/20 04:56:36;;;;;;;5.43;2.70;;;-1.20;99.90;;;;;;4997814;23;20642;-91
2024/01/20 04:58:37;;;;;;;13.23;3.20;;;-1.30;99.90;;;;;;4997947;23;20155;-91
2024/01/20 05:00:39;;;;;;;3.00;1.77;;;-1.40;99.90;;;;;;5021273;23;20162;-90
2024/01/20 05:02:40;;;;;;;3.93;2.50;;;-1.40;99.90;;;;;;4997970;23;20607;-91
2024/01/20 05:04:41;;;;;;;2.47;1.30;;;-1.50;99.90;;;;;;4997874;23;20159;-91
2024/01/20 05:06:45;;;;;;;0.67;0.67;;;-1.50;99.90;;;;;;4997873;23;20641;-91
2024/01/20 05:08:46;;;;;;;0.97;0.83;;;-1.60;99.90;;;;;;5021636;23;20163;-90
2024/01/20 05:10:47;;;;;;;3.83;2.03;;;-1.50;99.90;;;;;;5021544;23;20304;-90
2024/01/20 05:12:47;;;;;;;3.40;2.07;;;-1.60;99.90;;;;;;5021557;23;20251;-90
2024/01/20 05:14:48;;;;;;;7.67;1.93;;;-1.60;99.90;;;;;;5021585;23;20147;-90
2024/01/20 05:16:49;;;;;;;5.40;0.83;;;-1.50;99.90;;;;;;4997712;23;20214;-90
2024/01/20 05:18:52;;;;;;;14.23;3.73;;;-1.60;99.90;;;;;;5021613;23;20151;-90
2024/01/20 05:20:53;;;;;;;9.40;3.10;;;-1.40;99.90;;;;;;4997728;23;20167;-90
2024/01/20 05:22:53;;;;;;;2.00;1.57;;;-1.40;99.90;;;;;;4997807;23;20177;-89
2024/01/20 05:24:54;;;;;;;4.17;2.60;;;-1.40;99.90;;;;;;5021580;23;20162;-90
2024/01/20 05:26:55;;;;;;;1.90;1.63;;;-1.50;99.90;;;;;;5021376;23;20171;-90
2024/01/20 05:28:56;;;;;;;6.10;2.03;;;-1.60;99.90;;;;;;4997385;23;20531;-90
2024/01/20 05:30:57;;;;;;;4.53;2.63;;;-1.50;99.90;;;;;;4997556;23;20168;-91
2024/01/20 05:32:58;;;;;;;6.50;3.60;;;-1.50;99.90;;;;;;4998089;23;20159;-89
2024/01/20 05:34:59;;;;;;;10.20;2.60;;;-1.50;99.90;;;;;;5021489;23;20211;-91
2024/01/20 05:37:00;;;;;;;7.07;1.83;;;-1.50;99.90;;;;;;4997784;23;20538;-90
2024/01/20 05:39:01;;;;;;;7.90;2.57;;;-1.50;99.90;;;;;;4997568;23;20151;-90
2024/01/20 05:41:02;;;;;;;8.43;2.00;;;-1.50;99.90;;;;;;5021346;23;20167;-89
2024/01/20 05:43:04;;;;;;;3.57;1.90;;;-1.40;99.90;;;;;;4997659;23;20156;-89
2024/01/20 05:45:08;;;;;;;7.27;3.83;;;-1.50;99.90;;;;;;4997754;23;20163;-90
2024/01/20 05:47:09;;;;;;;4.87;1.47;;;-1.50;99.90;;;;;;4997592;23;20175;-91
2024/01/20 05:49:10;;;;;;;10.30;3.30;;;-1.50;99.90;;;;;;5021805;23;20202;-90
2024/01/20 05:51:11;;;;;;;9.70;2.43;;;-1.50;99.90;;;;;;5021353;23;20201;-91
2024/01/20 05:53:12;;;;;;;3.87;1.77;;;-1.50;99.90;;;;;;5021212;23;20150;-90
2024/01/20 05:55:12;;;;;;;3.10;2.20;;;-1.50;99.90;;;;;;4997615;23;20491;-89
2024/01/20 05:57:13;;;;;;;4.67;3.07;;;-1.40;99.90;;;;;;4997477;23;20163;-90
2024/01/20 05:59:14;;;;;;;6.80;3.17;;;-1.40;99.90;;;;;;4997462;23;20151;-90
2024/01/20 06:01:17;;;;;;;1.43;1.33;;;-1.40;99.90;;;;;;4997478;23;20191;-90
2024/01/20 06:03:18;;;;;;;3.50;2.27;;;-1.40;99.90;;;;;;5021344;23;20233;-90
2024/01/20 06:05:18;;;;;;;1.93;0.50;;;-1.50;99.90;;;;;;4997434;23;20658;-89
2024/01/20 06:07:19;;;;;;;1.80;1.27;;;-1.50;99.90;;;;;;4998930;23;20618;-93
2024/01/20 06:09:20;;;;;;;4.83;3.67;;;-1.40;99.90;;;;;;5023184;23;20559;-91
2024/01/20 06:11:23;;;;;;;2.33;1.70;;;-1.40;99.90;;;;;;4998470;23;20286;-91
2024/01/20 06:13:24;;;;;;;9.50;2.33;;;-1.40;99.90;;;;;;4997395;23;20239;-92
2024/01/20 06:15:25;;;;;;;4.50;4.03;;;-1.40;99.90;;;;;;4997399;23;20156;-93
2024/01/20 06:17:27;;;;;;;4.70;2.53;;;-1.40;99.90;;;;;;5021319;23;20261;-92
2024/01/20 06:19:27;;;;;;;5.33;2.00;;;-1.30;99.90;;;;;;4997192;23;20151;-91
2024/01/20 06:21:28;;;;;;;4.53;1.47;;;-1.30;99.90;;;;;;5021255;23;20152;-93
2024/01/20 06:23:30;;;;;;;5.50;3.10;;;-1.30;99.90;;;;;;5021003;23;20230;-93
2024/01/20 06:25:31;;;;;;;6.37;2.77;;;-1.30;99.90;;;;;;4997248;23;20626;-91
2024/01/20 06:27:32;;;;;;;1.67;1.40;;;-1.30;99.90;;;;;;4997513;23;20155;-92
2024/01/20 06:29:33;;;;;;;4.80;2.40;;;-1.30;99.90;;;;;;4997443;23;20159;-92
2024/01/20 06:31:34;;;;;;;6.43;3.03;;;-1.30;99.90;;;;;;5015617;23;20195;-93
2024/01/20 06:33:35;;;;;;;2.40;1.93;;;-1.30;99.90;;;;;;5021242;23;20274;-91
2024/01/20 06:35:36;;;;;;;8.27;4.10;;;-1.30;99.90;;;;;;5021025;23;20166;-92
2024/01/20 06:37:37;;;;;;;4.77;2.03;;;-1.30;99.90;;;;;;5021003;23;20162;-91
2024/01/20 06:39:39;;;;;;;4.87;2.43;;;-1.30;99.90;;;;;;5044725;23;20158;-90
2024/01/20 06:41:41;;;;;;;3.50;2.43;;;-1.30;99.90;;;;;;5021320;23;20235;-91
2024/01/20 06:43:42;;;;;;;4.60;2.27;;;-1.30;99.90;;;;;;5021103;23;20151;-91
2024/01/20 06:45:45;;;;;;;6.37;2.23;;;-1.30;99.90;;;;;;5021072;23;20227;-92
2024/01/20 06:47:46;;;;;;;3.93;1.83;;;-1.20;99.90;;;;;;5020949;23;20161;-93
2024/01/20 06:49:49;;;;;;;10.87;2.57;;;-1.30;99.90;;;;;;5044745;23;20159;-90
2024/01/20 06:51:50;;;;;;;5.50;3.80;;;-1.20;99.90;;;;;;5020690;23;20196;-91
2024/01/20 06:53:57;;;;;;;12.20;4.47;;;-1.20;99.90;;;;;;5021387;23;20154;-92
2024/01/20 06:55:58;;;;;;;3.30;2.67;;;-1.10;99.90;;;;;;5020858;23;20204;-91
2024/01/20 06:57:58;;;;;;;5.93;3.00;;;-1.20;99.90;;;;;;5020898;23;20222;-91
2024/01/20 06:59:59;;;;;;;5.67;2.00;;;-1.20;99.90;;;;;;5020682;23;20159;-92
2024/01/20 07:02:00;;;;;;;4.10;2.57;;;-1.20;99.90;;;;;;5020523;23;20155;-91
2024/01/20 07:04:01;;;;;;;5.97;2.97;;;-1.20;99.90;;;;;;5020691;23;20250;-90
2024/01/20 07:06:03;;;;;;;6.67;1.87;;;-1.20;99.90;;;;;;5021273;23;20175;-91
2024/01/20 07:08:04;;;;;;;3.07;1.93;;;-1.20;99.90;;;;;;5046426;23;20154;-92
2024/01/20 07:10:08;;;;;;;6.27;3.17;;;-1.10;99.90;;;;;;5022674;23;20159;-92
2024/01/20 07:12:09;;;;;;;11.83;3.27;;;-1.10;99.90;;;;;;5022512;23;20186;-91
2024/01/20 07:14:10;;;;;;;4.33;2.13;;;-1.10;99.90;;;;;;5022742;23;20155;-92
2024/01/20 07:16:13;;;;;;;6.57;3.77;;;-1.20;99.90;;;;;;5022615;23;20230;-91
2024/01/20 07:18:13;;;;;;;1.67;1.57;;;-1.20;99.90;;;;;;5022653;23;20621;-92
2024/01/20 07:20:14;;;;;;;15.30;5.90;;;-1.20;99.90;;;;;;5022452;23;20214;-90
2024/01/20 07:22:15;;;;;;;3.80;1.43;;;-1.20;99.90;;;;;;5022348;23;20155;-91
2024/01/20 07:24:16;;;;;;;5.50;2.50;;;-1.20;99.90;;;;;;5022449;23;20170;-92
2024/01/20 07:26:17;;;;;;;4.33;2.70;;;-1.20;99.90;;;;;;5046143;23;20659;-91
2024/01/20 07:28:18;;;;;;;5.80;2.73;;;-1.10;99.90;;;;;;5022381;23;20158;-91
2024/01/20 07:30:19;;;;;;;6.10;3.03;;;-1.10;99.90;;;;;;5018604;23;20155;-91
2024/01/20 07:32:19;;;;;;;5.60;2.90;;;-1.10;99.90;;;;;;4998675;23;20194;-92
2024/01/20 07:34:20;;;;;;;7.33;3.47;;;-1.10;99.90;;;;;;4998789;23;20155;-90
2024/01/20 07:36:21;;;;;;;6.10;3.20;;;-1.10;99.90;;;;;;5022000;23;20175;-92
2024/01/20 07:38:22;;;;;;;9.30;3.93;;;-1.10;99.90;;;;;;4998380;23;20507;-91
2024/01/20 07:40:23;;;;;;;5.07;2.10;;;-1.10;99.90;;;;;;4998624;23;20595;-91
2024/01/20 07:42:23;;;;;;;4.33;2.77;;;-1.20;99.90;;;;;;5022579;23;20155;-91
2024/01/20 07:44:24;;;;;;;5.37;2.23;;;-1.10;99.90;;;;;;5022472;23;20162;-92
2024/01/20 07:46:25;;;;;;;6.40;3.37;;;-1.00;99.90;;;;;;4997978;23;20218;-90
2024/01/20 07:48:27;;;;;;;5.63;3.27;;;-1.10;99.90;;;;;;5022402;23;20155;-92
2024/01/20 07:50:29;;;;;;;4.13;3.03;;;-1.10;99.90;;;;;;4998344;23;20613;-91
2024/01/20 07:52:29;;;;;;;6.37;2.10;;;-1.10;99.90;;;;;;4998387;23;20198;-92
2024/01/20 07:54:30;;;;;;;6.90;3.83;;;-1.10;99.90;;;;;;5022308;23;20155;-91
2024/01/20 07:56:31;;;;;;;7.47;4.00;;;-1.00;99.90;;;;;;5022189;23;20250;-92
2024/01/20 07:58:32;;;;;;;6.50;2.40;;;-1.00;99.90;;;;;;5022178;23;20151;-93
2024/01/20 08:00:33;;;;;;;4.13;2.67;;;-1.10;99.90;;;;;;4998241;23;20155;-92
2024/01/20 08:02:34;;;;;;;4.60;2.73;;;-1.10;99.90;;;;;;5022025;23;20191;-91
2024/01/20 08:04:35;;;;;;;8.37;3.50;;;-1.10;99.90;;;;;;5022108;23;20606;-92
2024/01/20 08:06:36;;;;;;;3.80;1.80;;;-1.10;99.90;;;;;;4998513;23;20183;-91
2024/01/20 08:08:37;;;;;;;8.60;4.30;;;-1.10;99.90;;;;;;4998592;23;20483;-92
2024/01/20 08:10:38;;;;;;;11.37;3.10;;;-1.20;99.90;;;;;;4998524;23;20155;-92
2024/01/20 08:12:39;;;;;;;3.47;2.33;;;-1.20;99.90;;;;;;4998397;23;20187;-92
2024/01/20 08:14:39;;;;;;;10.40;4.47;;;-1.10;99.90;;;;;;5022054;23;20190;-92
2024/01/20 08:16:40;;;;;;;8.80;3.00;;;-1.10;99.90;;;;;;4998226;23;20722;-92
2024/01/20 08:18:41;;;;;;;6.63;2.90;;;-1.20;99.90;;;;;;4997873;23;20687;-92
2024/01/20 08:20:42;;;;;;;6.93;2.60;;;-1.10;99.90;;;;;;5022247;23;20166;-92
2024/01/20 08:22:43;;;;;;;4.27;3.40;;;-1.10;99.90;;;;;;4998353;23;20599;-92
2024/01/20 08:24:44;;;;;;;12.03;5.90;;;-1.00;99.90;;;;;;4997994;23;20280;-91
2024/01/20 08:26:45;;;;;;;4.17;3.33;;;-0.90;99.90;;;;;;4998230;23;20167;-92
2024/01/20 08:28:46;;;;;;;11.13;3.80;;;-1.00;99.90;;;;;;4998205;23;20148;-93
2024/01/20 08:30:47;;;;;;;5.80;3.17;;;-1.00;99.90;;;;;;5007088;23;20174;-91
2024/01/20 08:32:48;;;;;;;6.27;3.50;;;-1.10;99.90;;;;;;5045815;23;20257;-92
2024/01/20 08:34:48;;;;;;;5.20;2.97;;;-1.10;99.90;;;;;;5045777;23;20155;-92
2024/01/20 08:36:49;;;;;;;9.77;3.80;;;-1.10;99.90;;;;;;5045394;23;20237;-92
2024/01/20 08:38:50;;;;;;;3.57;2.13;;;-1.00;99.90;;;;;;5022002;23;20158;-91
2024/01/20 08:40:51;;;;;;;7.87;4.27;;;-1.10;99.90;;;;;;5021708;23;20158;-91
2024/01/20 08:42:52;;;;;;;3.33;2.37;;;-1.10;99.90;;;;;;5022029;23;20166;-91
2024/01/20 08:44:53;;;;;;;4.27;1.93;;;-1.10;99.90;;;;;;5045377;23;20154;-92
2024/01/20 08:46:55;;;;;;;2.77;2.37;;;-1.00;99.90;;;;;;5021684;23;20622;-92
2024/01/20 08:48:56;;;;;;;4.37;3.63;;;-1.10;99.90;;;;;;5022201;23;20157;-92
2024/01/20 08:50:57;;;;;;;8.13;3.40;;;-1.10;99.90;;;;;;5021867;23;20170;-92
2024/01/20 08:52:58;;;;;;;11.23;3.10;;;-1.00;99.90;;;;;;5021754;23;20159;-92
2024/01/20 08:54:58;;;;;;;2.30;2.03;;;-0.80;99.90;;;;;;5022019;23;20190;-92
2024/01/20 08:56:59;;;;;;;2.87;2.30;;;-1.00;99.90;;;;;;5021271;23;20259;-93
2024/01/20 08:59:00;;;;;;;4.17;2.17;;;-0.90;99.90;;;;;;5021989;23;20582;-92
2024/01/20 09:01:01;;;;;;;8.73;2.67;;;-0.90;99.90;;;;;;5021895;23;20182;-90
2024/01/20 09:03:02;;;;;;;3.63;1.93;;;-0.90;99.90;;;;;;5045687;23;20155;-92
2024/01/20 09:05:03;;;;;;;3.83;2.03;;;-1.10;99.90;;;;;;5045404;23;20648;-91
2024/01/20 09:07:04;;;;;;;7.83;2.03;;;-1.20;99.90;;;;;;5021617;23;20198;-92
2024/01/20 09:09:07;;;;;;;2.20;1.60;;;-1.30;99.90;;;;;;5045224;23;20590;-92
2024/01/20 09:11:08;;;;;;;5.73;2.63;;;-1.40;99.90;;;;;;5021400;23;20152;-92
2024/01/20 09:13:09;;;;;;;5.40;2.53;;;-1.50;99.90;;;;;;5045330;23;20159;-91
2024/01/20 09:15:11;;;;;;;15.70;2.70;;;-1.50;99.90;;;;;;5021854;23;20226;-91
2024/01/20 09:17:12;;;;;;;3.47;1.90;;;-1.50;99.90;;;;;;5021388;23;20249;-91
2024/01/20 09:19:13;;;;;;;6.73;3.63;;;-1.40;99.90;;;;;;5021547;23;20155;-91
2024/01/20 09:21:13;;;;;;;3.27;1.67;;;-1.40;99.90;;;;;;5020987;23;20158;-92
2024/01/20 09:23:14;;;;;;;2.10;1.67;;;-1.50;99.90;;;;;;5045373;23;20157;-91
2024/01/20 09:25:17;;;;;;;7.17;3.53;;;-1.60;99.90;;;;;;5021590;23;20155;-92
2024/01/20 09:27:17;;;;;;;13.13;3.50;;;-1.60;99.90;;;;;;5021564;23;20166;-92
2024/01/20 09:29:18;;;;;;;1.60;1.30;;;-1.60;99.90;;;;;;5021087;23;20158;-91
2024/01/20 09:31:19;;;;;;;5.87;2.50;;;-1.60;99.90;;;;;;5021038;23;20187;-92
2024/01/20 09:33:20;;;;;;;4.13;1.27;;;-1.50;99.90;;;;;;5021506;23;20813;-91
2024/01/20 09:35:21;;;;;;;5.87;2.50;;;-1.40;99.90;;;;;;5021339;23;20158;-92
2024/01/20 09:37:22;;;;;;;2.53;1.20;;;-1.50;99.90;;;;;;5021372;23;20210;-90
2024/01/20 09:39:23;;;;;;;5.40;3.13;;;-1.50;99.90;;;;;;5021663;23;20194;-92
2024/01/20 09:41:25;;;;;;;3.73;2.37;;;-1.50;99.90;;;;;;5045154;23;20151;-92
2024/01/20 09:43:26;;;;;;;9.87;3.77;;;-1.50;99.90;;;;;;5044992;23;20238;-92
2024/01/20 09:45:27;;;;;;;4.00;3.17;;;-1.30;99.90;;;;;;5021298;23;20151;-92
2024/01/20 09:47:27;;;;;;;9.87;3.70;;;-1.10;99.90;;;;;;5020773;23;20238;-92
2024/01/20 09:49:29;;;;;;;4.13;1.57;;;-1.10;99.90;;;;;;5021287;23;20151;-91
2024/01/20 09:51:31;;;;;;;3.67;1.90;;;-1.10;99.90;;;;;;5021029;23;20190;-90
2024/01/20 09:53:33;;;;;;;3.80;2.50;;;-1.10;99.90;;;;;;5021050;23;20162;-90
2024/01/20 09:55:34;;;;;;;8.23;2.77;;;-1.00;99.90;;;;;;5044668;23;20249;-90
2024/01/20 09:57:36;;;;;;;0.93;0.93;;;-1.20;99.90;;;;;;5044846;23;20246;-92
2024/01/20 09:59:41;;;;;;;3.50;2.83;;;-1.30;99.90;;;;;;5021035;23;20186;-92
2024/01/20 10:01:43;;;;;;;5.73;2.30;;;-1.30;99.90;;;;;;5021427;23;20151;-90
2024/01/20 10:03:44;;;;;;;3.30;2.07;;;-1.30;99.90;;;;;;5021540;23;20166;-90
2024/01/20 10:05:45;;;;;;;3.60;1.63;;;-1.30;99.90;;;;;;5046511;23;20173;-91
2024/01/20 10:07:47;;;;;;;3.50;1.57;;;-1.40;99.90;;;;;;5042732;23;20162;-91
2024/01/20 10:09:47;;;;;;;2.10;0.57;;;-1.50;99.90;;;;;;5033049;23;20155;-92
2024/01/20 10:11:48;;;;;;;3.20;2.13;;;-1.50;99.90;;;;;;5021538;23;20721;-91
2024/01/20 10:13:49;;;;;;;8.53;2.77;;;-1.20;99.90;;;;;;5021468;23;20155;-92
2024/01/20 10:15:50;;;;;;;7.43;3.50;;;-1.10;99.90;;;;;;5021263;23;20238;-92
2024/01/20 10:17:51;;;;;;;0.73;0.70;;;-1.10;99.90;;;;;;5021108;23;20162;-92
2024/01/20 10:19:51;;;;;;;4.60;2.73;;;-1.30;99.90;;;;;;5021312;23;20621;-92
2024/01/20 10:21:52;;;;;;;3.73;1.93;;;-1.30;99.90;;;;;;5044974;23;20150;-90
2024/01/20 10:23:53;;;;;;;4.90;2.77;;;-1.50;99.90;;;;;;5020861;23;20202;-91
2024/01/20 10:26:04;;;;;;;3.40;2.03;;;-1.50;99.90;;;;;;5044660;23;20688;-91
2024/01/20 10:28:07;;;;;;;6.13;2.83;;;-1.30;99.90;;;;;;5020771;23;20158;-90